FACT/CPT METAR and TAF weather

Enter ICAO airport designator
Station Type Date Time Source
FACT METAR 2019/08/22 09:00 UTC NOAA

FACT 220900Z 16008KT 9999 SCT007 18/14 Q1023 TEMPO BKN007


Station Type Date Time Source
FACT Decoded METAR 2019/08/22 09:00 UTC NOAA

Station name not available
Aug 22, 2019 - 05:00 AM EDT / 2019.08.22 0900 UTC
Wind: from the SSE (160 degrees) at 9 MPH (8 KT):0
Visibility: greater than 7 mile(s):0
Sky conditions: partly cloudy
Temperature: 64 F (18 C)
Dew Point: 57 F (14 C)
Relative Humidity: 77%
Pressure (altimeter): 30.21 in. Hg (1023 hPa)
ob: FACT 220900Z 16008KT 9999 SCT007 18/14 Q1023 TEMPO BKN007
cycle: 9

Station Type Date Time Source
FACT TAF 2019/08/22 06:42 UTC NOAA

TAF TAF FACT 220902Z 2206/2312 18011KT 9999 FEW015 TX22/2212Z TN08/2206Z PROB30
TEMPO 2209/2211 BKN007
FM221400 18018KT 9999 SCT006 PROB40
TEMPO 2216/2307 BKN005
BECMG 2217/2219 20006KT PROB30
TEMPO 2220/2307 0500 FG

Example: see airport list